Time;durP1;ratioP1;P1;durP2;ratioP2;P2;SDS_P1;SDS_P2;PMS_P1;PMS_P2;Temp;Humidity;BMP_temperature;BMP_pressure;BME280_temperature;BME280_humidity;BME280_pressure;Samples;Min_cycle;Max_cycle;Signal;HPM_P1;HPM_P2
2021/12/28 00:01:34;;;;;;;;;;;9.80;99.90;;;;;;7349907;19;109442;-85
2021/12/28 00:04:04;;;;;;;;;;;9.90;99.90;;;;;;7342183;19;115209;-85
2021/12/28 00:06:31;;;;;;;;;;;9.80;99.90;;;;;;7346806;19;109473;-85
2021/12/28 00:08:58;;;;;;;;;;;9.80;99.90;;;;;;7359624;19;109458;-85
2021/12/28 00:11:25;;;;;;;;;;;9.80;99.90;;;;;;7357972;19;114789;-85
2021/12/28 00:13:59;;;;;;;;;;;9.80;99.90;;;;;;7354825;19;109737;-86
2021/12/28 00:16:35;;;;;;;;;;;9.80;99.90;;;;;;7359450;19;110941;-85
2021/12/28 00:19:02;;;;;;;;;;;9.80;99.90;;;;;;7357446;19;110780;-85
2021/12/28 00:21:29;;;;;;;;;;;9.80;99.90;;;;;;7359341;19;109310;-85
2021/12/28 00:23:58;;;;;;;;;;;9.90;99.90;;;;;;7362776;19;114623;-85
2021/12/28 00:26:26;;;;;;;;;;;9.90;99.90;;;;;;7358975;19;109399;-85
2021/12/28 00:28:54;;;;;;;;;;;9.90;99.90;;;;;;7359681;19;110147;-85
2021/12/28 00:31:22;;;;;;;;;;;9.90;99.90;;;;;;7358579;19;112119;-85
2021/12/28 00:33:50;;;;;;;;;;;9.90;99.90;;;;;;7357725;19;109418;-85
2021/12/28 00:36:17;;;;;;;;;;;9.90;99.90;;;;;;7358299;19;111292;-85
2021/12/28 00:38:44;;;;;;;;;;;10.00;99.90;;;;;;7358921;19;112568;-86
2021/12/28 00:41:11;;;;;;;;;;;10.00;99.90;;;;;;7356609;19;109435;-86
2021/12/28 00:43:38;;;;;;;;;;;10.00;99.90;;;;;;7364596;19;111245;-85
2021/12/28 00:46:06;;;;;;;;;;;10.00;99.90;;;;;;7358621;19;109354;-85
2021/12/28 00:48:33;;;;;;;;;;;10.00;99.90;;;;;;7358594;19;110920;-86
2021/12/28 00:51:00;;;;;;;;;;;10.00;99.90;;;;;;7356401;19;111933;-86
2021/12/28 00:53:27;;;;;;;;;;;10.00;99.90;;;;;;7355987;19;109388;-85
2021/12/28 00:55:54;;;;;;;;;;;10.00;99.90;;;;;;7359165;19;115565;-86
2021/12/28 00:58:22;;;;;;;;;;;10.10;99.90;;;;;;7356207;19;111713;-85
2021/12/28 01:00:50;;;;;;;;;;;10.10;99.90;;;;;;7358073;19;109313;-85
2021/12/28 01:03:17;;;;;;;;;;;10.10;99.90;;;;;;7357632;19;113525;-85
2021/12/28 01:05:44;;;;;;;;;;;10.10;99.90;;;;;;7361731;19;110102;-86
2021/12/28 01:08:11;;;;;;;;;;;10.10;99.90;;;;;;7354802;19;111718;-85
2021/12/28 01:10:40;;;;;;;;;;;10.10;99.90;;;;;;7355400;19;112696;-85
2021/12/28 01:13:08;;;;;;;;;;;10.20;99.90;;;;;;7355885;19;109288;-85
2021/12/28 01:15:35;;;;;;;;;;;10.20;99.90;;;;;;7357829;19;111335;-85
2021/12/28 01:18:02;;;;;;;;;;;10.20;99.90;;;;;;7352414;19;112559;-86
2021/12/28 01:20:29;;;;;;;;;;;10.20;99.90;;;;;;7350481;19;109335;-86
2021/12/28 01:22:56;;;;;;;;;;;10.20;99.90;;;;;;7349231;19;110429;-85
2021/12/28 01:25:23;;;;;;;;;;;10.20;99.90;;;;;;7348780;19;112100;-85
2021/12/28 01:27:51;;;;;;;;;;;10.30;99.90;;;;;;7354555;19;109436;-85
2021/12/28 01:30:20;;;;;;;;;;;10.30;99.90;;;;;;7348952;19;111931;-86
2021/12/28 01:32:47;;;;;;;;;;;10.30;99.90;;;;;;7350495;19;109353;-85
2021/12/28 01:35:15;;;;;;;;;;;10.30;99.90;;;;;;7347747;19;110946;-86
2021/12/28 01:37:42;;;;;;;;;;;10.40;99.90;;;;;;7350711;19;114462;-85
2021/12/28 01:40:10;;;;;;;;;;;10.40;99.90;;;;;;7347299;19;110045;-86
2021/12/28 01:42:53;;;;;;;;;;;10.50;99.90;;;;;;7350723;19;110477;-86
2021/12/28 01:45:39;;;;;;;;;;;10.50;99.90;;;;;;7347352;19;111966;-87
2021/12/28 01:48:07;;;;;;;;;;;10.50;99.90;;;;;;7349444;19;109423;-86
2021/12/28 01:50:34;;;;;;;;;;;10.50;99.90;;;;;;7354664;19;113647;-86
2021/12/28 01:53:02;;;;;;;;;;;10.60;99.90;;;;;;7348553;19;109431;-86
2021/12/28 01:55:29;;;;;;;;;;;10.60;99.90;;;;;;7350125;19;110906;-86
2021/12/28 01:57:56;;;;;;;;;;;10.60;99.90;;;;;;7348542;19;112139;-86
2021/12/28 02:00:24;;;;;;;;;;;10.60;99.90;;;;;;7348993;19;109877;-86
2021/12/28 02:02:51;;;;;;;;;;;10.60;99.90;;;;;;7347058;19;110946;-86
2021/12/28 02:05:18;;;;;;;;;;;10.70;99.90;;;;;;7349745;19;112348;-86
2021/12/28 02:07:45;;;;;;;;;;;10.70;99.90;;;;;;7346542;19;109377;-86
2021/12/28 02:10:12;;;;;;;;;;;10.70;99.90;;;;;;7349239;19;110939;-86
2021/12/28 02:12:39;;;;;;;;;;;10.70;99.90;;;;;;7353524;19;111895;-86
2021/12/28 02:15:12;;;;;;;;;;;10.70;99.90;;;;;;7342941;19;109590;-86
2021/12/28 02:17:39;;;;;;;;;;;10.70;99.90;;;;;;7345899;19;112211;-85
2021/12/28 02:20:07;;;;;;;;;;;10.70;99.90;;;;;;7346861;19;109479;-86
2021/12/28 02:22:34;;;;;;;;;;;10.70;99.90;;;;;;7346494;19;111033;-86
2021/12/28 02:25:01;;;;;;;;;;;10.80;99.90;;;;;;7347890;19;111049;-86
2021/12/28 02:27:29;;;;;;;;;;;10.80;99.90;;;;;;7349292;19;109468;-86
2021/12/28 02:29:56;;;;;;;;;;;10.80;99.90;;;;;;7346330;19;111296;-86
2021/12/28 02:32:27;;;;;;;;;;;10.80;99.90;;;;;;7346805;19;111805;-85
2021/12/28 02:34:54;;;;;;;;;;;10.80;99.90;;;;;;7351181;19;109414;-86
2021/12/28 02:37:21;;;;;;;;;;;10.80;99.90;;;;;;7348974;19;111685;-86
2021/12/28 02:39:48;;;;;;;;;;;10.80;99.90;;;;;;7347895;19;109889;-86
2021/12/28 02:42:17;;;;;;;;;;;10.80;99.90;;;;;;7347720;19;115046;-86
2021/12/28 02:44:43;;;;;;;;;;;10.80;99.90;;;;;;7347347;19;112762;-85
2021/12/28 02:47:15;;;;;;;;;;;10.80;99.90;;;;;;7346123;19;109367;-85
2021/12/28 02:49:42;;;;;;;;;;;10.80;99.90;;;;;;7347826;19;112361;-86
2021/12/28 02:52:09;;;;;;;;;;;10.70;99.90;;;;;;7345102;19;114721;-86
2021/12/28 02:54:38;;;;;;;;;;;10.70;99.90;;;;;;7350528;19;109302;-86
2021/12/28 02:57:05;;;;;;;;;;;10.70;99.90;;;;;;7345633;19;110099;-86
2021/12/28 02:59:32;;;;;;;;;;;10.70;99.90;;;;;;7347481;19;109355;-86
2021/12/28 03:01:59;;;;;;;;;;;10.80;99.90;;;;;;7344506;19;112215;-86
2021/12/28 03:04:27;;;;;;;;;;;10.80;99.90;;;;;;7347216;19;112591;-85
2021/12/28 03:06:54;;;;;;;;;;;10.80;99.90;;;;;;7344897;19;109862;-86
2021/12/28 03:09:22;;;;;;;;;;;10.80;99.90;;;;;;7347862;19;109986;-85
2021/12/28 03:11:49;;;;;;;;;;;10.80;99.90;;;;;;7344055;19;110868;-86
2021/12/28 03:14:16;;;;;;;;;;;10.90;99.90;;;;;;7344446;19;109305;-86
2021/12/28 03:16:43;;;;;;;;;;;10.90;99.90;;;;;;7351020;19;111107;-86
2021/12/28 03:19:11;;;;;;;;;;;10.80;99.90;;;;;;7344715;19;109723;-86
2021/12/28 03:21:38;;;;;;;;;;;10.80;99.90;;;;;;7345188;19;110952;-86
2021/12/28 03:24:05;;;;;;;;;;;10.80;99.90;;;;;;7346279;19;112414;-86
2021/12/28 03:26:33;;;;;;;;;;;10.90;99.90;;;;;;7346339;19;109340;-86
2021/12/28 03:29:00;;;;;;;;;;;10.90;99.90;;;;;;7345874;19;110777;-86
2021/12/28 03:31:27;;;;;;;;;;;10.90;99.90;;;;;;7344490;19;112032;-86
2021/12/28 03:33:54;;;;;;;;;;;10.80;99.90;;;;;;7344679;19;109532;-85
2021/12/28 03:36:22;;;;;;;;;;;10.90;99.90;;;;;;7346399;19;110017;-86
2021/12/28 03:38:49;;;;;;;;;;;10.90;99.90;;;;;;7349131;19;111793;-86
2021/12/28 03:41:18;;;;;;;;;;;10.90;99.90;;;;;;7345191;19;112874;-86
2021/12/28 03:43:46;;;;;;;;;;;10.90;99.90;;;;;;7344390;19;112208;-86
2021/12/28 03:46:13;;;;;;;;;;;11.00;99.90;;;;;;7345047;19;109261;-85
2021/12/28 03:48:41;;;;;;;;;;;11.00;99.90;;;;;;7343647;19;110799;-86
2021/12/28 03:51:08;;;;;;;;;;;11.00;99.90;;;;;;7343576;19;116915;-86
2021/12/28 03:53:35;;;;;;;;;;;11.00;99.90;;;;;;7344773;19;109313;-86
2021/12/28 03:56:03;;;;;;;;;;;11.00;99.90;;;;;;7343442;19;112859;-86
2021/12/28 03:58:30;;;;;;;;;;;11.00;99.90;;;;;;7345173;19;114423;-85
2021/12/28 04:00:57;;;;;;;;;;;11.00;99.90;;;;;;7350003;19;109375;-86
2021/12/28 04:03:24;;;;;;;;;;;11.00;99.90;;;;;;7344206;19;112194;-85
2021/12/28 04:05:51;;;;;;;;;;;10.90;99.90;;;;;;7343479;19;109425;-86
2021/12/28 04:08:19;;;;;;;;;;;10.90;99.90;;;;;;7346418;19;111618;-87
2021/12/28 04:10:51;;;;;;;;;;;10.90;99.90;;;;;;7344057;19;112241;-86
2021/12/28 04:13:19;;;;;;;;;;;10.90;99.90;;;;;;7344918;19;109235;-85
2021/12/28 04:15:46;;;;;;;;;;;10.90;99.90;;;;;;7339933;19;111124;-86
2021/12/28 04:18:15;;;;;;;;;;;10.90;99.90;;;;;;7345214;19;111811;-86
2021/12/28 04:20:42;;;;;;;;;;;10.90;99.90;;;;;;7342971;19;109378;-86
2021/12/28 04:23:08;;;;;;;;;;;11.00;99.90;;;;;;7348568;19;113687;-85
2021/12/28 04:25:36;;;;;;;;;;;10.90;99.90;;;;;;7345203;19;109947;-86
2021/12/28 04:28:03;;;;;;;;;;;11.00;99.90;;;;;;7344910;19;111164;-86
2021/12/28 04:30:30;;;;;;;;;;;10.90;99.90;;;;;;7344512;19;115301;-86
2021/12/28 04:32:57;;;;;;;;;;;11.00;99.90;;;;;;7343080;19;109493;-86
2021/12/28 04:35:24;;;;;;;;;;;11.00;99.90;;;;;;7341820;19;110715;-86
2021/12/28 04:37:51;;;;;;;;;;;11.00;99.90;;;;;;7342066;19;115629;-86
2021/12/28 04:40:18;;;;;;;;;;;11.00;99.90;;;;;;7343867;19;109446;-85
2021/12/28 04:42:45;;;;;;;;;;;11.00;99.90;;;;;;7347492;19;111440;-86
2021/12/28 04:45:14;;;;;;;;;;;11.00;99.90;;;;;;7344569;19;109355;-87
2021/12/28 04:47:42;;;;;;;;;;;10.90;99.90;;;;;;7343861;19;111200;-87
2021/12/28 04:50:10;;;;;;;;;;;10.90;99.90;;;;;;7342542;19;110197;-86
2021/12/28 04:52:38;;;;;;;;;;;10.90;99.90;;;;;;7342078;19;109383;-87
2021/12/28 04:55:09;;;;;;;;;;;11.00;99.90;;;;;;7346622;19;111609;-86
2021/12/28 04:57:36;;;;;;;;;;;10.90;99.90;;;;;;7350261;19;110163;-86
2021/12/28 05:00:06;;;;;;;;;;;11.00;99.90;;;;;;7351218;19;109323;-86
2021/12/28 05:02:33;;;;;;;;;;;11.00;99.90;;;;;;7350291;19;113462;-86
2021/12/28 05:05:00;;;;;;;;;;;11.00;99.90;;;;;;7355807;19;114127;-85
2021/12/28 05:07:27;;;;;;;;;;;10.90;99.90;;;;;;7350642;19;111068;-86
2021/12/28 05:09:57;;;;;;;;;;;10.90;99.90;;;;;;7347886;19;110383;-86
2021/12/28 05:12:25;;;;;;;;;;;10.90;99.90;;;;;;7350768;19;109370;-86
2021/12/28 05:14:52;;;;;;;;;;;11.00;99.90;;;;;;7348683;19;110768;-86
2021/12/28 05:17:19;;;;;;;;;;;10.90;99.90;;;;;;7349998;19;110843;-86
2021/12/28 05:19:46;;;;;;;;;;;10.90;99.90;;;;;;7348640;19;109419;-86
2021/12/28 05:22:13;;;;;;;;;;;10.90;99.90;;;;;;7349783;19;111016;-86
2021/12/28 05:24:40;;;;;;;;;;;10.90;99.90;;;;;;7348455;19;112246;-86
2021/12/28 05:27:07;;;;;;;;;;;10.90;99.90;;;;;;7355021;19;109330;-86
2021/12/28 05:29:34;;;;;;;;;;;10.90;99.90;;;;;;7347258;19;111937;-85
2021/12/28 05:32:01;;;;;;;;;;;11.00;99.90;;;;;;7348622;19;109277;-86
2021/12/28 05:34:28;;;;;;;;;;;11.00;99.90;;;;;;7346898;19;110862;-86
2021/12/28 05:36:54;;;;;;;;;;;11.00;99.90;;;;;;7348772;19;111706;-86
2021/12/28 05:39:21;;;;;;;;;;;11.00;99.90;;;;;;7349536;19;109242;-87
2021/12/28 05:41:48;;;;;;;;;;;11.00;99.90;;;;;;7349286;19;111257;-86
2021/12/28 05:44:17;;;;;;;;;;;11.00;99.90;;;;;;7348017;19;112022;-86
2021/12/28 05:46:47;;;;;;;;;;;11.00;99.90;;;;;;7348762;19;109680;-86
2021/12/28 05:49:14;;;;;;;;;;;11.00;99.90;;;;;;7355119;19;109364;-86
2021/12/28 05:51:42;;;;;;;;;;;10.90;99.90;;;;;;7347058;19;109396;-86
2021/12/28 05:54:09;;;;;;;;;;;11.00;99.90;;;;;;7348323;19;110753;-86
2021/12/28 05:56:36;;;;;;;;;;;10.90;99.90;;;;;;7348562;19;115849;-86
2021/12/28 05:59:03;;;;;;;;;;;11.00;99.90;;;;;;7347545;19;109842;-86
2021/12/28 06:01:30;;;;;;;;;;;11.00;99.90;;;;;;7348666;19;110808;-86
2021/12/28 06:03:57;;;;;;;;;;;11.00;99.90;;;;;;7347817;19;115071;-86
2021/12/28 06:06:24;;;;;;;;;;;11.00;99.90;;;;;;7346305;19;109481;-86
2021/12/28 06:08:53;;;;;;;;;;;11.00;99.90;;;;;;7346914;19;112100;-86
2021/12/28 06:11:20;;;;;;;;;;;11.00;99.90;;;;;;7350709;19;111740;-86
2021/12/28 06:13:47;;;;;;;;;;;11.00;99.90;;;;;;7344924;19;110809;-85
2021/12/28 06:16:17;;;;;;;;;;;11.00;99.90;;;;;;7342297;19;112301;-87
2021/12/28 06:18:44;;;;;;;;;;;11.00;99.90;;;;;;7342788;19;109364;-88
2021/12/28 06:21:11;;;;;;;;;;;11.00;99.90;;;;;;7341953;19;114134;-88
2021/12/28 06:23:38;;;;;;;;;;;11.00;99.90;;;;;;7343976;19;110831;-87
2021/12/28 06:26:05;;;;;;;;;;;11.00;99.90;;;;;;7345021;19;109449;-87
2021/12/28 06:28:32;;;;;;;;;;;10.90;99.90;;;;;;7343534;19;111920;-87
2021/12/28 06:30:59;;;;;;;;;;;11.00;99.90;;;;;;7344466;19;113080;-86
2021/12/28 06:33:26;;;;;;;;;;;11.00;99.90;;;;;;7352939;19;109331;-87
2021/12/28 06:35:54;;;;;;;;;;;11.00;99.90;;;;;;7344267;19;112492;-88
2021/12/28 06:38:21;;;;;;;;;;;11.00;99.90;;;;;;7347491;19;109795;-87
2021/12/28 06:40:48;;;;;;;;;;;11.00;99.90;;;;;;7346437;19;111185;-88
2021/12/28 06:43:15;;;;;;;;;;;11.10;99.90;;;;;;7348150;19;114913;-86
2021/12/28 06:45:42;;;;;;;;;;;11.10;99.90;;;;;;7347924;19;109279;-88
2021/12/28 06:48:09;;;;;;;;;;;11.10;99.90;;;;;;7349018;19;115300;-86
2021/12/28 06:50:36;;;;;;;;;;;11.00;99.90;;;;;;7349603;19;112827;-85
2021/12/28 06:53:03;;;;;;;;;;;11.10;99.90;;;;;;7353607;19;109817;-86
2021/12/28 06:55:30;;;;;;;;;;;11.00;99.90;;;;;;7344091;19;111995;-84
2021/12/28 06:57:57;;;;;;;;;;;11.00;99.90;;;;;;7348375;19;109191;-86
2021/12/28 07:00:24;;;;;;;;;;;11.10;99.90;;;;;;7347297;19;109703;-85
2021/12/28 07:02:51;;;;;;;;;;;11.10;99.90;;;;;;7346876;19;112562;-85
2021/12/28 07:05:18;;;;;;;;;;;11.10;99.90;;;;;;7348373;19;109330;-85
2021/12/28 07:07:45;;;;;;;;;;;11.00;99.90;;;;;;7347104;19;111187;-85
2021/12/28 07:10:12;;;;;;;;;;;11.10;99.90;;;;;;7344967;19;115203;-85
2021/12/28 07:12:39;;;;;;;;;;;11.10;99.90;;;;;;7347553;19;109123;-85
2021/12/28 07:15:06;;;;;;;;;;;11.10;99.90;;;;;;7352707;19;111134;-86
2021/12/28 07:17:33;;;;;;;;;;;11.10;99.90;;;;;;7342240;19;109493;-85
2021/12/28 07:20:00;;;;;;;;;;;11.10;99.90;;;;;;7346090;19;113689;-85
2021/12/28 07:22:27;;;;;;;;;;;11.10;99.90;;;;;;7346067;19;112101;-84
2021/12/28 07:24:54;;;;;;;;;;;11.10;99.90;;;;;;7345646;19;109355;-85
2021/12/28 07:27:21;;;;;;;;;;;11.20;99.90;;;;;;7344458;19;110948;-85
2021/12/28 07:29:47;;;;;;;;;;;11.10;99.90;;;;;;7344647;19;111849;-86
2021/12/28 07:32:14;;;;;;;;;;;11.20;99.90;;;;;;7347280;19;109635;-85
2021/12/28 07:34:41;;;;;;;;;;;11.20;99.90;;;;;;7346356;19;109253;-86
2021/12/28 07:37:08;;;;;;;;;;;11.20;99.90;;;;;;7352042;19;112515;-86
2021/12/28 07:39:35;;;;;;;;;;;11.20;99.90;;;;;;7346588;19;111266;-85
2021/12/28 07:42:02;;;;;;;;;;;11.20;99.90;;;;;;7347267;19;112413;-86
2021/12/28 07:44:29;;;;;;;;;;;11.20;99.90;;;;;;7346102;19;109972;-85
2021/12/28 07:46:56;;;;;;;;;;;11.20;99.90;;;;;;7346921;19;109251;-85
2021/12/28 07:49:23;;;;;;;;;;;11.20;99.90;;;;;;7344510;19;112610;-86
2021/12/28 07:51:50;;;;;;;;;;;11.20;99.90;;;;;;7346398;19;109343;-86
2021/12/28 07:54:17;;;;;;;;;;;11.10;99.90;;;;;;7344740;19;113063;-86
2021/12/28 07:56:44;;;;;;;;;;;11.20;99.90;;;;;;7343769;19;110220;-86
2021/12/28 07:59:11;;;;;;;;;;;11.20;99.90;;;;;;7351335;19;109210;-85
2021/12/28 08:01:37;;;;;;;;;;;11.20;99.90;;;;;;7345518;19;113237;-85
2021/12/28 08:04:05;;;;;;;;;;;11.20;99.90;;;;;;7345880;19;109280;-84
2021/12/28 08:06:32;;;;;;;;;;;11.30;99.90;;;;;;7344545;19;111010;-86
2021/12/28 08:08:59;;;;;;;;;;;11.30;99.90;;;;;;7343261;19;111801;-86
2021/12/28 08:11:26;;;;;;;;;;;11.30;99.90;;;;;;7345285;19;109356;-85
2021/12/28 08:13:53;;;;;;;;;;;11.30;99.90;;;;;;7345677;19;110991;-85
2021/12/28 08:16:19;;;;;;;;;;;11.30;99.90;;;;;;7342601;19;115225;-85
2021/12/28 08:18:46;;;;;;;;;;;11.30;99.90;;;;;;7346465;19;109307;-86
2021/12/28 08:21:34;;;;;;;;;;;11.30;99.90;;;;;;7349569;19;112621;-85
2021/12/28 08:24:01;;;;;;;;;;;11.40;99.90;;;;;;7343368;19;109489;-87
2021/12/28 08:26:28;;;;;;;;;;;11.40;99.90;;;;;;7344352;19;110816;-85
2021/12/28 08:28:55;;;;;;;;;;;11.40;99.90;;;;;;7348743;19;115142;-85
2021/12/28 08:31:25;;;;;;;;;;;11.40;99.90;;;;;;7351988;19;109341;-86
2021/12/28 08:33:52;;;;;;;;;;;11.40;99.90;;;;;;7352914;19;110794;-85
2021/12/28 08:36:18;;;;;;;;;;;11.40;99.90;;;;;;7350658;19;112413;-85
2021/12/28 08:38:45;;;;;;;;;;;11.40;99.90;;;;;;7351742;19;109766;-86
2021/12/28 08:41:12;;;;;;;;;;;11.40;99.90;;;;;;7350868;19;110904;-88
2021/12/28 08:43:45;;;;;;;;;;;11.40;99.90;;;;;;7356571;19;112005;-88
2021/12/28 08:46:12;;;;;;;;;;;11.50;99.90;;;;;;7350165;19;111679;-87
2021/12/28 08:48:39;;;;;;;;;;;11.50;99.90;;;;;;7347817;19;112052;-85
2021/12/28 08:51:06;;;;;;;;;;;11.50;99.90;;;;;;7349417;19;109290;-84
2021/12/28 08:53:34;;;;;;;;;;;11.50;99.90;;;;;;7350559;19;111080;-84
2021/12/28 08:56:01;;;;;;;;;;;11.50;99.90;;;;;;7350100;19;110070;-85
2021/12/28 08:58:27;;;;;;;;;;;11.50;99.90;;;;;;7350753;19;109783;-84
2021/12/28 09:00:54;;;;;;;;;;;11.50;99.90;;;;;;7351631;19;109268;-84
2021/12/28 09:03:21;;;;;;;;;;;11.60;99.90;;;;;;7355966;19;112019;-86
2021/12/28 09:05:49;;;;;;;;;;;11.60;99.90;;;;;;7349656;19;110911;-84
2021/12/28 09:08:18;;;;;;;;;;;11.60;99.90;;;;;;7350477;19;112204;-84
2021/12/28 09:10:45;;;;;;;;;;;11.60;99.90;;;;;;7350354;19;109424;-85
2021/12/28 09:13:14;;;;;;;;;;;11.60;99.90;;;;;;7351009;19;110708;-85
2021/12/28 09:15:42;;;;;;;;;;;11.60;99.90;;;;;;7349914;19;110490;-84
2021/12/28 09:18:09;;;;;;;;;;;11.60;99.90;;;;;;7352360;19;109647;-85
2021/12/28 09:20:36;;;;;;;;;;;11.70;99.90;;;;;;7350484;19;111751;-84
2021/12/28 09:23:10;;;;;;;;;;;11.70;99.90;;;;;;7350612;19;112812;-85
2021/12/28 09:25:37;;;;;;;;;;;11.60;99.90;;;;;;7355526;19;109380;-85
2021/12/28 09:28:04;;;;;;;;;;;11.70;99.90;;;;;;7350562;19;111938;-84
2021/12/28 09:30:31;;;;;;;;;;;11.80;99.90;;;;;;7350494;19;109359;-85
2021/12/28 09:32:58;;;;;;;;;;;11.80;99.90;;;;;;7350841;19;111023;-85
2021/12/28 09:35:25;;;;;;;;;;;11.80;99.90;;;;;;7349450;19;112669;-84
2021/12/28 09:37:52;;;;;;;;;;;11.80;99.90;;;;;;7350051;19;109302;-85
2021/12/28 09:40:19;;;;;;;;;;;11.70;99.90;;;;;;7349409;19;111026;-85
2021/12/28 09:42:46;;;;;;;;;;;11.80;99.90;;;;;;7348002;19;112031;-85
2021/12/28 09:45:13;;;;;;;;;;;11.80;99.90;;;;;;7350019;19;109357;-84
2021/12/28 09:47:41;;;;;;;;;;;11.80;99.90;;;;;;7354640;19;111000;-85
2021/12/28 09:50:11;;;;;;;;;;;11.80;99.90;;;;;;7349009;19;109508;-85
2021/12/28 09:52:39;;;;;;;;;;;11.80;99.90;;;;;;7347051;19;111243;-85
2021/12/28 09:55:07;;;;;;;;;;;11.80;99.90;;;;;;7349545;19;113043;-85
2021/12/28 09:57:34;;;;;;;;;;;11.80;99.90;;;;;;7346662;19;109413;-85
2021/12/28 10:00:02;;;;;;;;;;;11.90;99.90;;;;;;7349970;19;111204;-85
2021/12/28 10:02:29;;;;;;;;;;;11.90;99.90;;;;;;7348752;19;112139;-85
2021/12/28 10:05:04;;;;;;;;;;;11.90;99.90;;;;;;7349340;19;109544;-85
2021/12/28 10:07:34;;;;;;;;;;;11.90;99.90;;;;;;7349687;19;110883;-85
2021/12/28 10:10:00;;;;;;;;;;;12.00;99.90;;;;;;7353579;19;112025;-85
2021/12/28 10:12:35;;;;;;;;;;;12.00;99.90;;;;;;7349340;19;110853;-85
2021/12/28 10:15:08;;;;;;;;;;;11.90;99.90;;;;;;7345235;19;111730;-84
2021/12/28 10:17:36;;;;;;;;;;;11.90;99.90;;;;;;7347519;19;109171;-84
2021/12/28 10:20:07;;;;;;;;;;;11.90;99.90;;;;;;7348441;19;111638;-84
2021/12/28 10:22:37;;;;;;;;;;;11.90;99.90;;;;;;7349472;19;112825;-85
2021/12/28 10:25:09;;;;;;;;;;;11.90;99.90;;;;;;7346029;19;109369;-85
2021/12/28 10:27:44;;;;;;;;;;;11.90;99.90;;;;;;7346925;19;111874;-84
2021/12/28 10:30:13;;;;;;;;;;;12.00;99.90;;;;;;7347377;19;111767;-85
2021/12/28 10:32:41;;;;;;;;;;;12.00;99.90;;;;;;7354434;19;109763;-84
2021/12/28 10:35:10;;;;;;;;;;;12.00;99.90;;;;;;7348292;19;112060;-85
2021/12/28 10:37:39;;;;;;;;;;;12.00;99.90;;;;;;7346332;19;109467;-84
2021/12/28 10:40:08;;;;;;;;;;;11.90;99.90;;;;;;7348874;19;111136;-85
2021/12/28 10:42:41;;;;;;;;;;;11.90;99.90;;;;;;7347981;19;112279;-84
2021/12/28 10:45:10;;;;;;;;;;;12.00;99.90;;;;;;7348873;19;109964;-85
2021/12/28 10:47:36;;;;;;;;;;;11.90;99.90;;;;;;7348118;19;111017;-84
2021/12/28 10:50:24;;;;;;;;;;;11.90;99.90;;;;;;7344766;19;112048;-84
2021/12/28 10:53:03;;;;;;;;;;;12.00;99.90;;;;;;7346692;19;109798;-85
2021/12/28 10:55:31;;;;;;;;;;;11.90;99.90;;;;;;7352358;19;111038;-84
2021/12/28 10:57:58;;;;;;;;;;;11.90;99.90;;;;;;7346249;19;109297;-83
2021/12/28 11:00:34;;;;;;;;;;;11.90;99.90;;;;;;7347346;19;111051;-84
2021/12/28 11:03:16;;;;;;;;;;;11.90;99.90;;;;;;7346916;19;111946;-83
2021/12/28 11:05:44;;;;;;;;;;;11.90;99.90;;;;;;7347593;19;110278;-83
2021/12/28 11:08:11;;;;;;;;;;;11.90;99.90;;;;;;7345961;19;110798;-84
2021/12/28 11:10:48;;;;;;;;;;;11.80;99.90;;;;;;7346585;19;111760;-84
2021/12/28 11:13:20;;;;;;;;;;;11.80;99.90;;;;;;7345218;19;109300;-83
2021/12/28 11:15:47;;;;;;;;;;;11.70;99.90;;;;;;7348675;19;109541;-84
2021/12/28 11:18:17;;;;;;;;;;;11.70;99.90;;;;;;7340684;19;111073;-83
2021/12/28 11:20:44;;;;;;;;;;;11.70;99.90;;;;;;7350669;19;111926;-82
2021/12/28 11:23:22;;;;;;;;;;;11.70;99.90;;;;;;7345066;19;113556;-84
2021/12/28 11:26:10;;;;;;;;;;;11.70;99.90;;;;;;7347607;19;109290;-85
2021/12/28 11:28:41;;;;;;;;;;;11.60;99.90;;;;;;7345167;19;110824;-86
2021/12/28 11:31:28;;;;;;;;;;;11.60;99.90;;;;;;7349807;19;112518;-86
2021/12/28 11:33:59;;;;;;;;;;;11.60;99.90;;;;;;7345043;19;109317;-86
2021/12/28 11:36:31;;;;;;;;;;;11.50;99.90;;;;;;7342643;19;109985;-84
2021/12/28 11:38:59;;;;;;;;;;;11.60;99.90;;;;;;7351431;19;112346;-83
2021/12/28 11:41:27;;;;;;;;;;;11.60;99.90;;;;;;7345028;19;110738;-84
2021/12/28 11:43:55;;;;;;;;;;;11.50;99.90;;;;;;7344049;19;112333;-84
2021/12/28 11:46:22;;;;;;;;;;;11.50;99.90;;;;;;7345572;19;109741;-83
2021/12/28 11:48:50;;;;;;;;;;;11.50;99.90;;;;;;7342831;19;111076;-84
2021/12/28 11:51:20;;;;;;;;;;;11.60;99.90;;;;;;7340403;19;112655;-84
2021/12/28 11:53:47;;;;;;;;;;;11.50;99.90;;;;;;7345960;19;109264;-85
2021/12/28 11:56:16;;;;;;;;;;;11.40;99.90;;;;;;7344936;19;111303;-83
2021/12/28 11:58:49;;;;;;;;;;;11.40;99.90;;;;;;7344579;19;110451;-84
2021/12/28 12:01:34;;;;;;;;;;;11.40;99.90;;;;;;7348343;19;109378;-84
2021/12/28 12:04:02;;;;;;;;;;;11.40;99.90;;;;;;7343901;19;114471;-84
2021/12/28 12:06:48;;;;;;;;;;;11.50;99.90;;;;;;7344954;19;109362;-85
2021/12/28 12:09:15;;;;;;;;;;;11.60;99.90;;;;;;7345480;19;109205;-85
2021/12/28 12:12:01;;;;;;;;;;;11.70;99.90;;;;;;7343789;19;112038;-84
2021/12/28 12:14:47;;;;;;;;;;;11.70;99.90;;;;;;7344080;19;109346;-84
2021/12/28 12:17:26;;;;;;;;;;;11.80;99.90;;;;;;7343341;19;110977;-83
2021/12/28 12:19:53;;;;;;;;;;;11.90;99.90;;;;;;7345450;19;111409;-85
2021/12/28 12:22:29;;;;;;;;;;;12.00;99.90;;;;;;7343489;19;109445;-84
2021/12/28 12:25:01;;;;;;;;;;;12.10;99.90;;;;;;7349264;19;111606;-84
2021/12/28 12:27:46;;;;;;;;;;;12.10;99.90;;;;;;7345209;19;109634;-84
2021/12/28 12:30:28;;;;;;;;;;;12.00;99.90;;;;;;7342420;19;111042;-84
2021/12/28 12:32:55;;;;;;;;;;;11.90;99.90;;;;;;7344497;19;111988;-84
2021/12/28 12:35:33;;;;;;;;;;;12.00;99.90;;;;;;7343823;19;109329;-84
2021/12/28 12:38:00;;;;;;;;;;;11.90;99.90;;;;;;7343148;19;111035;-84
2021/12/28 12:40:46;;;;;;;;;;;11.90;99.90;;;;;;7343048;19;110718;-84
2021/12/28 12:43:13;;;;;;;;;;;11.90;99.90;;;;;;7342127;19;109375;-84
2021/12/28 12:45:52;;;;;;;;;;;11.80;99.90;;;;;;7342955;19;111445;-84
2021/12/28 12:48:32;;;;;;;;;;;11.90;99.90;;;;;;7346563;19;112915;-84
2021/12/28 12:51:17;;;;;;;;;;;11.80;99.90;;;;;;7344057;19;110725;-84
2021/12/28 12:53:46;;;;;;;;;;;11.80;99.90;;;;;;7342677;19;112171;-84
2021/12/28 12:56:17;;;;;;;;;;;11.80;99.90;;;;;;7342604;19;109805;-84
2021/12/28 12:58:46;;;;;;;;;;;11.70;99.90;;;;;;7341220;19;110882;-84
2021/12/28 13:01:22;;;;;;;;;;;11.60;99.90;;;;;;7341605;19;111062;-84
2021/12/28 13:03:49;;;;;;;;;;;11.70;99.90;;;;;;7344238;19;109393;-84
2021/12/28 13:06:37;;;;;;;;;;;11.60;99.90;;;;;;7343794;19;111921;-84
2021/12/28 13:09:14;;;;;;;;;;;11.60;99.90;;;;;;7341012;19;112824;-84
2021/12/28 13:11:42;;;;;;;;;;;11.60;99.90;;;;;;7348724;19;109527;-83
2021/12/28 13:14:11;;;;;;;;;;;11.60;99.90;;;;;;7339792;19;112263;-83
2021/12/28 13:16:38;;;;;;;;;;;11.50;99.90;;;;;;7350252;19;110079;-83
2021/12/28 13:19:15;;;;;;;;;;;11.40;99.90;;;;;;7347137;19;110588;-81
2021/12/28 13:22:12;;;;;;;;;;;11.30;99.90;;;;;;7348871;19;111838;-84
2021/12/28 13:24:43;;;;;;;;;;;11.30;99.90;;;;;;7347328;19;109265;-82
2021/12/28 13:27:13;;;;;;;;;;;11.00;99.90;;;;;;7350553;19;109579;-84
2021/12/28 13:29:40;;;;;;;;;;;10.90;99.90;;;;;;7347647;19;111762;-84
2021/12/28 13:32:18;;;;;;;;;;;10.80;99.90;;;;;;7352838;19;109654;-84
2021/12/28 13:35:04;;;;;;;;;;;10.60;99.90;;;;;;7350774;19;111753;-81
2021/12/28 13:37:37;;;;;;;;;;;10.40;99.90;;;;;;7349475;19;109297;-84
2021/12/28 13:40:13;;;;;;;;;;;10.20;99.90;;;;;;7350011;19;110594;-82
2021/12/28 13:42:42;;;;;;;;;;;10.10;99.90;;;;;;7348378;19;111056;-84
2021/12/28 13:45:11;;;;;;;;;;;10.00;99.90;;;;;;7350701;19;109290;-81
2021/12/28 13:47:39;;;;;;;;;;;10.00;99.90;;;;;;7350555;19;111072;-84
2021/12/28 13:50:08;;;;;;;;;;;9.90;99.90;;;;;;7349846;19;112383;-84
2021/12/28 13:52:39;;;;;;;;;;;9.90;99.90;;;;;;7349998;19;109352;-82
2021/12/28 13:55:06;;;;;;;;;;;9.90;99.90;;;;;;7354377;19;110980;-82
2021/12/28 13:57:33;;;;;;;;;;;9.80;99.90;;;;;;7349591;19;109831;-84
2021/12/28 14:00:00;;;;;;;;;;;9.80;99.90;;;;;;7349409;19;110858;-83
2021/12/28 14:02:27;;;;;;;;;;;9.80;99.90;;;;;;7348380;19;111080;-83
2021/12/28 14:04:54;;;;;;;;;;;9.80;99.90;;;;;;7350184;19;109301;-85
2021/12/28 14:07:21;;;;;;;;;;;9.80;99.90;;;;;;7347831;19;110884;-83
2021/12/28 14:09:50;;;;;;;;;;;9.80;99.90;;;;;;7347038;19;111916;-82
2021/12/28 14:12:17;;;;;;;;;;;9.70;99.90;;;;;;7348243;19;109353;-82
2021/12/28 14:14:51;;;;;;;;;;;9.80;99.90;;;;;;7347553;19;111140;-85
2021/12/28 14:17:19;;;;;;;;;;;9.80;99.90;;;;;;7352095;19;112015;-82